sensor_id;sensor_type;location;lat;lon;timestamp;P1;durP1;ratioP1;P2;durP2;ratioP2
73107;SDS011;61559;50.476;15.588;2023-04-25T00:01:27;2.40;;;0.90;;
73107;SDS011;61559;50.476;15.588;2023-04-25T00:04:00;0.80;;;0.60;;
73107;SDS011;61559;50.476;15.588;2023-04-25T00:06:31;0.80;;;0.70;;
73107;SDS011;61559;50.476;15.588;2023-04-25T00:09:04;0.70;;;0.70;;
73107;SDS011;61559;50.476;15.588;2023-04-25T00:11:38;1.90;;;0.80;;
73107;SDS011;61559;50.476;15.588;2023-04-25T00:14:09;1.00;;;0.60;;
73107;SDS011;61559;50.476;15.588;2023-04-25T00:16:40;0.90;;;0.70;;
73107;SDS011;61559;50.476;15.588;2023-04-25T00:19:12;2.40;;;0.70;;
73107;SDS011;61559;50.476;15.588;2023-04-25T00:21:43;0.50;;;0.40;;
73107;SDS011;61559;50.476;15.588;2023-04-25T00:24:14;0.90;;;0.70;;
73107;SDS011;61559;50.476;15.588;2023-04-25T00:29:15;1.30;;;0.90;;
73107;SDS011;61559;50.476;15.588;2023-04-25T00:31:47;3.00;;;1.00;;
73107;SDS011;61559;50.476;15.588;2023-04-25T00:34:18;1.40;;;0.90;;
73107;SDS011;61559;50.476;15.588;2023-04-25T00:36:49;1.40;;;0.80;;
73107;SDS011;61559;50.476;15.588;2023-04-25T00:39:20;4.40;;;0.80;;
73107;SDS011;61559;50.476;15.588;2023-04-25T00:41:51;1.00;;;0.70;;
73107;SDS011;61559;50.476;15.588;2023-04-25T00:44:24;2.50;;;0.80;;
73107;SDS011;61559;50.476;15.588;2023-04-25T00:46:57;1.10;;;0.90;;
73107;SDS011;61559;50.476;15.588;2023-04-25T00:49:29;1.20;;;0.90;;
73107;SDS011;61559;50.476;15.588;2023-04-25T00:54:30;2.40;;;0.70;;
73107;SDS011;61559;50.476;15.588;2023-04-25T00:57:01;1.40;;;0.80;;
73107;SDS011;61559;50.476;15.588;2023-04-25T00:59:33;1.50;;;1.00;;
73107;SDS011;61559;50.476;15.588;2023-04-25T01:02:05;1.60;;;1.00;;
73107;SDS011;61559;50.476;15.588;2023-04-25T01:04:37;3.40;;;1.00;;
73107;SDS011;61559;50.476;15.588;2023-04-25T01:07:09;3.50;;;1.00;;
73107;SDS011;61559;50.476;15.588;2023-04-25T01:09:40;2.40;;;1.10;;
73107;SDS011;61559;50.476;15.588;2023-04-25T01:12:12;1.60;;;1.20;;
73107;SDS011;61559;50.476;15.588;2023-04-25T01:14:43;1.70;;;1.00;;
73107;SDS011;61559;50.476;15.588;2023-04-25T01:17:15;1.90;;;1.00;;
73107;SDS011;61559;50.476;15.588;2023-04-25T01:19:46;1.40;;;0.80;;
73107;SDS011;61559;50.476;15.588;2023-04-25T01:22:18;1.20;;;0.80;;
73107;SDS011;61559;50.476;15.588;2023-04-25T01:24:50;1.10;;;0.90;;
73107;SDS011;61559;50.476;15.588;2023-04-25T01:27:21;1.20;;;0.80;;
73107;SDS011;61559;50.476;15.588;2023-04-25T01:29:53;1.10;;;0.80;;
73107;SDS011;61559;50.476;15.588;2023-04-25T01:32:25;1.80;;;0.90;;
73107;SDS011;61559;50.476;15.588;2023-04-25T01:34:56;1.40;;;0.90;;
73107;SDS011;61559;50.476;15.588;2023-04-25T01:37:29;1.40;;;1.00;;
73107;SDS011;61559;50.476;15.588;2023-04-25T01:40:00;1.90;;;0.90;;
73107;SDS011;61559;50.476;15.588;2023-04-25T01:42:34;1.40;;;0.80;;
73107;SDS011;61559;50.476;15.588;2023-04-25T01:45:07;1.00;;;0.70;;
73107;SDS011;61559;50.476;15.588;2023-04-25T01:47:39;1.60;;;0.90;;
73107;SDS011;61559;50.476;15.588;2023-04-25T01:50:12;1.50;;;0.80;;
73107;SDS011;61559;50.476;15.588;2023-04-25T01:52:43;1.10;;;1.00;;
73107;SDS011;61559;50.476;15.588;2023-04-25T01:55:14;1.50;;;1.00;;
73107;SDS011;61559;50.476;15.588;2023-04-25T01:57:46;1.20;;;0.70;;
73107;SDS011;61559;50.476;15.588;2023-04-25T02:02:47;0.90;;;0.90;;
73107;SDS011;61559;50.476;15.588;2023-04-25T02:05:19;2.80;;;0.80;;
73107;SDS011;61559;50.476;15.588;2023-04-25T02:07:50;0.70;;;0.70;;
73107;SDS011;61559;50.476;15.588;2023-04-25T02:10:21;2.70;;;0.90;;
73107;SDS011;61559;50.476;15.588;2023-04-25T02:15:22;2.90;;;0.80;;
73107;SDS011;61559;50.476;15.588;2023-04-25T02:17:54;1.10;;;1.00;;
73107;SDS011;61559;50.476;15.588;2023-04-25T02:20:26;3.10;;;0.80;;
73107;SDS011;61559;50.476;15.588;2023-04-25T02:22:58;1.10;;;0.80;;
73107;SDS011;61559;50.476;15.588;2023-04-25T02:27:59;1.40;;;1.00;;
73107;SDS011;61559;50.476;15.588;2023-04-25T02:30:30;1.40;;;0.70;;
73107;SDS011;61559;50.476;15.588;2023-04-25T02:35:31;1.10;;;0.90;;
73107;SDS011;61559;50.476;15.588;2023-04-25T02:38:02;1.90;;;0.90;;
73107;SDS011;61559;50.476;15.588;2023-04-25T02:40:35;1.90;;;0.90;;
73107;SDS011;61559;50.476;15.588;2023-04-25T02:43:06;1.10;;;0.80;;
73107;SDS011;61559;50.476;15.588;2023-04-25T02:45:37;1.10;;;1.00;;
73107;SDS011;61559;50.476;15.588;2023-04-25T02:50:37;2.30;;;1.40;;
73107;SDS011;61559;50.476;15.588;2023-04-25T02:53:08;1.50;;;1.00;;
73107;SDS011;61559;50.476;15.588;2023-04-25T02:55:39;1.90;;;1.10;;
73107;SDS011;61559;50.476;15.588;2023-04-25T03:00:40;1.60;;;1.00;;
73107;SDS011;61559;50.476;15.588;2023-04-25T03:05:42;1.60;;;1.00;;
73107;SDS011;61559;50.476;15.588;2023-04-25T03:08:13;1.40;;;1.00;;
73107;SDS011;61559;50.476;15.588;2023-04-25T03:13:14;1.70;;;1.10;;
73107;SDS011;61559;50.476;15.588;2023-04-25T03:18:14;2.80;;;1.10;;
73107;SDS011;61559;50.476;15.588;2023-04-25T03:20:45;3.50;;;1.80;;
73107;SDS011;61559;50.476;15.588;2023-04-25T03:23:16;2.90;;;1.70;;
73107;SDS011;61559;50.476;15.588;2023-04-25T03:25:47;5.80;;;2.00;;
73107;SDS011;61559;50.476;15.588;2023-04-25T03:28:18;2.60;;;1.80;;
73107;SDS011;61559;50.476;15.588;2023-04-25T03:30:50;4.90;;;2.00;;
73107;SDS011;61559;50.476;15.588;2023-04-25T03:33:22;3.00;;;1.90;;
73107;SDS011;61559;50.476;15.588;2023-04-25T03:35:53;3.00;;;2.00;;
73107;SDS011;61559;50.476;15.588;2023-04-25T03:38:25;2.30;;;1.50;;
73107;SDS011;61559;50.476;15.588;2023-04-25T03:40:56;3.60;;;2.40;;
73107;SDS011;61559;50.476;15.588;2023-04-25T03:43:27;3.90;;;2.30;;
73107;SDS011;61559;50.476;15.588;2023-04-25T03:45:58;3.30;;;2.00;;
73107;SDS011;61559;50.476;15.588;2023-04-25T03:48:30;3.20;;;1.70;;
73107;SDS011;61559;50.476;15.588;2023-04-25T03:51:01;2.20;;;1.60;;
73107;SDS011;61559;50.476;15.588;2023-04-25T03:56:02;5.80;;;1.20;;
73107;SDS011;61559;50.476;15.588;2023-04-25T03:58:33;2.10;;;1.40;;
73107;SDS011;61559;50.476;15.588;2023-04-25T04:01:05;1.80;;;1.30;;
73107;SDS011;61559;50.476;15.588;2023-04-25T04:03:36;3.60;;;1.90;;
73107;SDS011;61559;50.476;15.588;2023-04-25T04:06:07;2.30;;;1.50;;
73107;SDS011;61559;50.476;15.588;2023-04-25T04:11:08;2.60;;;2.00;;
73107;SDS011;61559;50.476;15.588;2023-04-25T04:16:09;2.60;;;1.80;;
73107;SDS011;61559;50.476;15.588;2023-04-25T04:18:40;2.90;;;1.70;;
73107;SDS011;61559;50.476;15.588;2023-04-25T04:21:11;3.20;;;1.90;;
73107;SDS011;61559;50.476;15.588;2023-04-25T04:23:43;3.40;;;1.80;;
73107;SDS011;61559;50.476;15.588;2023-04-25T04:26:15;3.10;;;1.80;;
73107;SDS011;61559;50.476;15.588;2023-04-25T04:28:46;4.40;;;1.70;;
73107;SDS011;61559;50.476;15.588;2023-04-25T04:31:18;2.80;;;2.20;;
73107;SDS011;61559;50.476;15.588;2023-04-25T04:36:19;2.20;;;1.50;;
73107;SDS011;61559;50.476;15.588;2023-04-25T04:38:51;2.80;;;1.70;;
73107;SDS011;61559;50.476;15.588;2023-04-25T04:41:24;3.80;;;1.90;;
73107;SDS011;61559;50.476;15.588;2023-04-25T04:43:55;3.10;;;1.80;;
73107;SDS011;61559;50.476;15.588;2023-04-25T04:46:29;2.60;;;1.80;;
73107;SDS011;61559;50.476;15.588;2023-04-25T04:49:06;2.80;;;1.90;;
73107;SDS011;61559;50.476;15.588;2023-04-25T04:51:37;2.20;;;1.50;;
73107;SDS011;61559;50.476;15.588;2023-04-25T04:54:09;3.60;;;2.10;;
73107;SDS011;61559;50.476;15.588;2023-04-25T04:56:40;3.90;;;2.60;;
73107;SDS011;61559;50.476;15.588;2023-04-25T05:01:41;6.00;;;3.20;;
73107;SDS011;61559;50.476;15.588;2023-04-25T05:04:12;5.10;;;3.10;;
73107;SDS011;61559;50.476;15.588;2023-04-25T05:06:44;4.00;;;2.70;;
73107;SDS011;61559;50.476;15.588;2023-04-25T05:09:16;5.30;;;2.50;;
73107;SDS011;61559;50.476;15.588;2023-04-25T05:11:47;8.00;;;3.50;;
73107;SDS011;61559;50.476;15.588;2023-04-25T05:14:18;5.60;;;3.80;;
73107;SDS011;61559;50.476;15.588;2023-04-25T05:16:49;5.40;;;3.50;;
73107;SDS011;61559;50.476;15.588;2023-04-25T05:19:20;6.30;;;3.50;;
73107;SDS011;61559;50.476;15.588;2023-04-25T05:21:52;5.10;;;2.80;;
73107;SDS011;61559;50.476;15.588;2023-04-25T05:24:23;4.40;;;2.70;;
73107;SDS011;61559;50.476;15.588;2023-04-25T05:29:24;5.10;;;2.60;;
73107;SDS011;61559;50.476;15.588;2023-04-25T05:31:55;4.30;;;2.70;;
73107;SDS011;61559;50.476;15.588;2023-04-25T05:34:26;4.30;;;2.50;;
73107;SDS011;61559;50.476;15.588;2023-04-25T05:36:57;6.00;;;2.70;;
73107;SDS011;61559;50.476;15.588;2023-04-25T05:39:29;4.10;;;2.60;;
73107;SDS011;61559;50.476;15.588;2023-04-25T05:42:00;4.40;;;2.40;;
73107;SDS011;61559;50.476;15.588;2023-04-25T05:44:31;5.40;;;2.80;;
73107;SDS011;61559;50.476;15.588;2023-04-25T05:47:02;3.60;;;2.40;;
73107;SDS011;61559;50.476;15.588;2023-04-25T05:49:34;4.50;;;2.60;;
73107;SDS011;61559;50.476;15.588;2023-04-25T05:52:05;6.20;;;2.20;;
73107;SDS011;61559;50.476;15.588;2023-04-25T05:57:06;7.00;;;3.40;;
73107;SDS011;61559;50.476;15.588;2023-04-25T05:59:37;7.40;;;3.50;;
73107;SDS011;61559;50.476;15.588;2023-04-25T06:04:38;4.70;;;3.30;;
73107;SDS011;61559;50.476;15.588;2023-04-25T06:09:39;6.00;;;3.60;;
73107;SDS011;61559;50.476;15.588;2023-04-25T06:12:09;6.90;;;3.50;;
73107;SDS011;61559;50.476;15.588;2023-04-25T06:14:40;8.10;;;4.00;;
73107;SDS011;61559;50.476;15.588;2023-04-25T06:17:12;7.70;;;4.10;;
73107;SDS011;61559;50.476;15.588;2023-04-25T06:22:12;5.10;;;3.10;;
73107;SDS011;61559;50.476;15.588;2023-04-25T06:27:14;4.00;;;2.90;;
73107;SDS011;61559;50.476;15.588;2023-04-25T06:29:46;5.30;;;3.10;;
73107;SDS011;61559;50.476;15.588;2023-04-25T06:32:17;6.00;;;3.20;;
73107;SDS011;61559;50.476;15.588;2023-04-25T06:34:48;5.30;;;3.00;;
73107;SDS011;61559;50.476;15.588;2023-04-25T06:39:49;4.90;;;2.70;;
73107;SDS011;61559;50.476;15.588;2023-04-25T06:44:49;3.70;;;2.30;;
73107;SDS011;61559;50.476;15.588;2023-04-25T06:47:20;5.00;;;2.90;;
73107;SDS011;61559;50.476;15.588;2023-04-25T06:49:51;4.60;;;2.60;;
73107;SDS011;61559;50.476;15.588;2023-04-25T06:59:51;6.40;;;4.00;;
73107;SDS011;61559;50.476;15.588;2023-04-25T07:02:22;5.90;;;4.00;;
73107;SDS011;61559;50.476;15.588;2023-04-25T07:04:54;4.70;;;2.80;;
73107;SDS011;61559;50.476;15.588;2023-04-25T07:07:27;8.50;;;4.70;;
73107;SDS011;61559;50.476;15.588;2023-04-25T07:09:58;9.30;;;4.00;;
73107;SDS011;61559;50.476;15.588;2023-04-25T07:12:30;4.90;;;3.30;;
73107;SDS011;61559;50.476;15.588;2023-04-25T07:15:01;5.30;;;3.10;;
73107;SDS011;61559;50.476;15.588;2023-04-25T07:17:34;5.10;;;2.90;;
73107;SDS011;61559;50.476;15.588;2023-04-25T07:20:06;5.70;;;3.00;;
73107;SDS011;61559;50.476;15.588;2023-04-25T07:22:38;3.80;;;2.30;;
73107;SDS011;61559;50.476;15.588;2023-04-25T07:27:38;4.30;;;2.90;;
73107;SDS011;61559;50.476;15.588;2023-04-25T07:30:10;6.50;;;2.70;;
73107;SDS011;61559;50.476;15.588;2023-04-25T07:32:42;5.10;;;2.80;;
73107;SDS011;61559;50.476;15.588;2023-04-25T07:35:13;4.20;;;2.50;;
73107;SDS011;61559;50.476;15.588;2023-04-25T07:37:45;3.60;;;2.60;;
73107;SDS011;61559;50.476;15.588;2023-04-25T07:42:45;4.70;;;2.80;;
73107;SDS011;61559;50.476;15.588;2023-04-25T07:45:16;8.20;;;3.70;;
73107;SDS011;61559;50.476;15.588;2023-04-25T07:47:49;6.20;;;2.40;;
73107;SDS011;61559;50.476;15.588;2023-04-25T07:50:20;5.80;;;3.60;;
73107;SDS011;61559;50.476;15.588;2023-04-25T07:52:51;5.70;;;3.20;;
73107;SDS011;61559;50.476;15.588;2023-04-25T07:55:22;4.60;;;3.30;;
73107;SDS011;61559;50.476;15.588;2023-04-25T07:57:54;5.00;;;3.50;;
73107;SDS011;61559;50.476;15.588;2023-04-25T08:00:25;6.10;;;3.20;;
73107;SDS011;61559;50.476;15.588;2023-04-25T08:02:56;3.50;;;2.60;;
73107;SDS011;61559;50.476;15.588;2023-04-25T08:05:28;3.70;;;2.50;;
73107;SDS011;61559;50.476;15.588;2023-04-25T08:07:59;2.80;;;2.00;;
73107;SDS011;61559;50.476;15.588;2023-04-25T08:10:30;2.30;;;1.90;;
73107;SDS011;61559;50.476;15.588;2023-04-25T08:15:30;4.70;;;2.70;;
73107;SDS011;61559;50.476;15.588;2023-04-25T08:18:01;4.80;;;3.10;;
73107;SDS011;61559;50.476;15.588;2023-04-25T08:20:32;7.80;;;4.30;;
73107;SDS011;61559;50.476;15.588;2023-04-25T08:23:03;4.70;;;2.80;;
73107;SDS011;61559;50.476;15.588;2023-04-25T08:25:34;5.70;;;3.70;;
73107;SDS011;61559;50.476;15.588;2023-04-25T08:28:05;5.90;;;3.30;;
73107;SDS011;61559;50.476;15.588;2023-04-25T08:30:37;5.70;;;3.40;;
73107;SDS011;61559;50.476;15.588;2023-04-25T08:33:08;4.50;;;3.40;;
73107;SDS011;61559;50.476;15.588;2023-04-25T08:35:39;5.70;;;3.40;;
73107;SDS011;61559;50.476;15.588;2023-04-25T08:38:11;5.70;;;3.30;;
73107;SDS011;61559;50.476;15.588;2023-04-25T08:40:42;5.00;;;3.10;;
73107;SDS011;61559;50.476;15.588;2023-04-25T08:43:18;5.50;;;3.10;;
73107;SDS011;61559;50.476;15.588;2023-04-25T08:45:50;4.30;;;2.70;;
73107;SDS011;61559;50.476;15.588;2023-04-25T08:48:28;5.50;;;3.20;;
73107;SDS011;61559;50.476;15.588;2023-04-25T08:51:02;4.30;;;2.90;;
73107;SDS011;61559;50.476;15.588;2023-04-25T08:53:40;5.70;;;3.40;;
73107;SDS011;61559;50.476;15.588;2023-04-25T08:56:14;4.40;;;2.70;;
73107;SDS011;61559;50.476;15.588;2023-04-25T08:58:48;4.50;;;3.30;;
73107;SDS011;61559;50.476;15.588;2023-04-25T09:01:20;5.50;;;3.30;;
73107;SDS011;61559;50.476;15.588;2023-04-25T09:03:51;5.20;;;3.00;;
73107;SDS011;61559;50.476;15.588;2023-04-25T09:06:23;8.00;;;3.50;;
73107;SDS011;61559;50.476;15.588;2023-04-25T09:08:55;6.10;;;3.70;;
73107;SDS011;61559;50.476;15.588;2023-04-25T09:11:34;5.00;;;3.20;;
73107;SDS011;61559;50.476;15.588;2023-04-25T09:14:11;5.20;;;3.60;;
73107;SDS011;61559;50.476;15.588;2023-04-25T09:17:00;4.00;;;2.90;;
73107;SDS011;61559;50.476;15.588;2023-04-25T09:19:33;4.30;;;2.80;;
73107;SDS011;61559;50.476;15.588;2023-04-25T09:22:09;6.60;;;3.20;;
73107;SDS011;61559;50.476;15.588;2023-04-25T09:24:41;4.90;;;3.30;;
73107;SDS011;61559;50.476;15.588;2023-04-25T09:27:19;5.20;;;3.30;;
73107;SDS011;61559;50.476;15.588;2023-04-25T09:29:56;9.00;;;3.50;;
73107;SDS011;61559;50.476;15.588;2023-04-25T09:32:29;5.00;;;3.50;;
73107;SDS011;61559;50.476;15.588;2023-04-25T09:35:00;8.60;;;3.30;;
73107;SDS011;61559;50.476;15.588;2023-04-25T09:37:35;7.20;;;3.50;;
73107;SDS011;61559;50.476;15.588;2023-04-25T09:42:40;6.10;;;4.10;;
73107;SDS011;61559;50.476;15.588;2023-04-25T09:45:13;5.50;;;3.40;;
73107;SDS011;61559;50.476;15.588;2023-04-25T09:47:44;6.30;;;3.80;;
73107;SDS011;61559;50.476;15.588;2023-04-25T09:50:15;7.80;;;3.60;;
73107;SDS011;61559;50.476;15.588;2023-04-25T09:52:48;6.90;;;4.20;;
73107;SDS011;61559;50.476;15.588;2023-04-25T09:55:34;5.20;;;3.70;;
73107;SDS011;61559;50.476;15.588;2023-04-25T09:58:05;6.70;;;3.40;;
73107;SDS011;61559;50.476;15.588;2023-04-25T10:00:38;5.10;;;3.70;;
73107;SDS011;61559;50.476;15.588;2023-04-25T10:03:10;7.20;;;3.40;;
73107;SDS011;61559;50.476;15.588;2023-04-25T10:05:42;5.00;;;3.00;;
73107;SDS011;61559;50.476;15.588;2023-04-25T10:08:14;4.70;;;3.30;;
73107;SDS011;61559;50.476;15.588;2023-04-25T10:10:46;6.50;;;3.40;;
73107;SDS011;61559;50.476;15.588;2023-04-25T10:13:18;6.20;;;3.80;;
73107;SDS011;61559;50.476;15.588;2023-04-25T10:15:50;4.60;;;3.20;;
73107;SDS011;61559;50.476;15.588;2023-04-25T10:18:23;4.40;;;3.60;;
73107;SDS011;61559;50.476;15.588;2023-04-25T10:20:56;5.00;;;3.60;;
73107;SDS011;61559;50.476;15.588;2023-04-25T10:23:29;5.20;;;3.40;;
73107;SDS011;61559;50.476;15.588;2023-04-25T10:26:02;6.10;;;3.80;;
73107;SDS011;61559;50.476;15.588;2023-04-25T10:28:45;4.70;;;3.10;;
73107;SDS011;61559;50.476;15.588;2023-04-25T10:31:26;4.10;;;3.10;;
73107;SDS011;61559;50.476;15.588;2023-04-25T10:33:59;6.10;;;3.90;;
73107;SDS011;61559;50.476;15.588;2023-04-25T10:36:32;5.50;;;3.70;;
73107;SDS011;61559;50.476;15.588;2023-04-25T10:39:05;5.10;;;3.30;;
73107;SDS011;61559;50.476;15.588;2023-04-25T10:41:47;6.60;;;3.40;;
73107;SDS011;61559;50.476;15.588;2023-04-25T10:44:22;3.50;;;3.00;;
73107;SDS011;61559;50.476;15.588;2023-04-25T10:46:56;6.50;;;3.90;;
73107;SDS011;61559;50.476;15.588;2023-04-25T10:49:31;3.40;;;3.00;;
73107;SDS011;61559;50.476;15.588;2023-04-25T10:52:13;5.30;;;3.20;;
73107;SDS011;61559;50.476;15.588;2023-04-25T10:54:51;5.40;;;3.10;;
73107;SDS011;61559;50.476;15.588;2023-04-25T11:00:00;6.10;;;3.10;;
73107;SDS011;61559;50.476;15.588;2023-04-25T11:02:37;4.80;;;3.10;;
73107;SDS011;61559;50.476;15.588;2023-04-25T11:05:18;4.80;;;3.30;;
73107;SDS011;61559;50.476;15.588;2023-04-25T11:07:52;9.40;;;4.10;;
73107;SDS011;61559;50.476;15.588;2023-04-25T11:10:29;3.90;;;2.80;;
73107;SDS011;61559;50.476;15.588;2023-04-25T11:13:01;4.00;;;3.00;;
73107;SDS011;61559;50.476;15.588;2023-04-25T11:15:32;5.60;;;3.00;;
73107;SDS011;61559;50.476;15.588;2023-04-25T11:18:04;4.60;;;3.10;;
73107;SDS011;61559;50.476;15.588;2023-04-25T11:20:38;4.40;;;2.40;;
73107;SDS011;61559;50.476;15.588;2023-04-25T11:23:12;5.10;;;2.80;;
73107;SDS011;61559;50.476;15.588;2023-04-25T11:25:44;3.90;;;2.60;;
73107;SDS011;61559;50.476;15.588;2023-04-25T11:28:20;3.20;;;2.30;;
73107;SDS011;61559;50.476;15.588;2023-04-25T11:30:53;3.50;;;2.80;;
73107;SDS011;61559;50.476;15.588;2023-04-25T11:33:25;4.40;;;2.60;;
73107;SDS011;61559;50.476;15.588;2023-04-25T11:35:56;4.30;;;2.70;;
73107;SDS011;61559;50.476;15.588;2023-04-25T11:38:28;3.10;;;2.40;;
73107;SDS011;61559;50.476;15.588;2023-04-25T11:40:59;4.60;;;2.50;;
73107;SDS011;61559;50.476;15.588;2023-04-25T11:43:30;3.80;;;2.20;;
73107;SDS011;61559;50.476;15.588;2023-04-25T11:46:02;2.40;;;1.90;;
73107;SDS011;61559;50.476;15.588;2023-04-25T11:48:40;4.60;;;2.00;;
73107;SDS011;61559;50.476;15.588;2023-04-25T11:51:12;3.60;;;2.40;;
73107;SDS011;61559;50.476;15.588;2023-04-25T11:53:46;3.70;;;2.20;;
73107;SDS011;61559;50.476;15.588;2023-04-25T11:56:18;3.30;;;2.10;;
73107;SDS011;61559;50.476;15.588;2023-04-25T11:58:56;2.90;;;2.40;;
73107;SDS011;61559;50.476;15.588;2023-04-25T12:01:30;2.90;;;2.10;;
73107;SDS011;61559;50.476;15.588;2023-04-25T12:04:13;4.80;;;2.20;;
73107;SDS011;61559;50.476;15.588;2023-04-25T12:06:46;2.40;;;1.90;;
73107;SDS011;61559;50.476;15.588;2023-04-25T12:09:19;2.30;;;1.80;;
73107;SDS011;61559;50.476;15.588;2023-04-25T12:11:57;2.00;;;1.70;;
73107;SDS011;61559;50.476;15.588;2023-04-25T12:14:31;3.00;;;1.90;;
73107;SDS011;61559;50.476;15.588;2023-04-25T12:17:04;3.10;;;2.00;;
73107;SDS011;61559;50.476;15.588;2023-04-25T12:19:37;5.30;;;2.20;;
73107;SDS011;61559;50.476;15.588;2023-04-25T12:22:19;3.60;;;2.20;;
73107;SDS011;61559;50.476;15.588;2023-04-25T12:24:54;5.40;;;2.60;;
73107;SDS011;61559;50.476;15.588;2023-04-25T12:27:26;3.70;;;2.10;;
73107;SDS011;61559;50.476;15.588;2023-04-25T12:29:57;4.80;;;2.00;;
73107;SDS011;61559;50.476;15.588;2023-04-25T12:32:29;2.90;;;1.90;;
73107;SDS011;61559;50.476;15.588;2023-04-25T12:35:00;4.30;;;2.10;;
73107;SDS011;61559;50.476;15.588;2023-04-25T12:37:32;4.50;;;2.10;;
73107;SDS011;61559;50.476;15.588;2023-04-25T12:40:05;4.40;;;2.10;;
73107;SDS011;61559;50.476;15.588;2023-04-25T12:42:38;4.90;;;2.50;;
73107;SDS011;61559;50.476;15.588;2023-04-25T12:45:09;5.00;;;2.00;;
73107;SDS011;61559;50.476;15.588;2023-04-25T12:47:40;7.30;;;2.70;;
73107;SDS011;61559;50.476;15.588;2023-04-25T12:50:12;4.40;;;2.20;;
73107;SDS011;61559;50.476;15.588;2023-04-25T12:52:43;3.30;;;2.50;;
73107;SDS011;61559;50.476;15.588;2023-04-25T12:55:14;7.10;;;2.20;;
73107;SDS011;61559;50.476;15.588;2023-04-25T12:57:45;3.80;;;2.30;;
73107;SDS011;61559;50.476;15.588;2023-04-25T13:00:17;2.50;;;1.70;;
73107;SDS011;61559;50.476;15.588;2023-04-25T13:02:48;4.10;;;2.20;;
73107;SDS011;61559;50.476;15.588;2023-04-25T13:05:20;3.00;;;2.10;;
73107;SDS011;61559;50.476;15.588;2023-04-25T13:07:51;3.90;;;2.00;;
73107;SDS011;61559;50.476;15.588;2023-04-25T13:10:22;2.60;;;1.80;;
73107;SDS011;61559;50.476;15.588;2023-04-25T13:12:53;4.20;;;1.80;;
73107;SDS011;61559;50.476;15.588;2023-04-25T13:15:24;2.40;;;1.70;;
73107;SDS011;61559;50.476;15.588;2023-04-25T13:17:55;4.30;;;1.80;;
73107;SDS011;61559;50.476;15.588;2023-04-25T13:20:26;3.40;;;1.50;;
73107;SDS011;61559;50.476;15.588;2023-04-25T13:22:58;2.90;;;1.80;;
73107;SDS011;61559;50.476;15.588;2023-04-25T13:25:30;2.90;;;2.00;;
73107;SDS011;61559;50.476;15.588;2023-04-25T13:28:01;2.10;;;1.70;;
73107;SDS011;61559;50.476;15.588;2023-04-25T13:30:33;3.30;;;1.60;;
73107;SDS011;61559;50.476;15.588;2023-04-25T13:33:04;2.90;;;1.40;;
73107;SDS011;61559;50.476;15.588;2023-04-25T13:35:36;3.90;;;1.70;;
73107;SDS011;61559;50.476;15.588;2023-04-25T13:38:08;4.60;;;1.80;;
73107;SDS011;61559;50.476;15.588;2023-04-25T13:40:39;3.00;;;1.50;;
73107;SDS011;61559;50.476;15.588;2023-04-25T13:43:10;2.70;;;1.50;;
73107;SDS011;61559;50.476;15.588;2023-04-25T13:45:41;1.60;;;1.00;;
73107;SDS011;61559;50.476;15.588;2023-04-25T13:48:12;1.50;;;1.20;;
73107;SDS011;61559;50.476;15.588;2023-04-25T13:50:43;2.10;;;1.30;;
73107;SDS011;61559;50.476;15.588;2023-04-25T13:53:14;2.20;;;1.30;;
73107;SDS011;61559;50.476;15.588;2023-04-25T13:55:45;4.10;;;1.60;;
73107;SDS011;61559;50.476;15.588;2023-04-25T13:58:16;3.70;;;1.40;;
73107;SDS011;61559;50.476;15.588;2023-04-25T14:00:49;2.50;;;1.10;;
73107;SDS011;61559;50.476;15.588;2023-04-25T14:03:22;1.50;;;1.10;;
73107;SDS011;61559;50.476;15.588;2023-04-25T14:05:53;3.50;;;1.20;;
73107;SDS011;61559;50.476;15.588;2023-04-25T14:08:24;1.20;;;1.10;;
73107;SDS011;61559;50.476;15.588;2023-04-25T14:10:55;2.50;;;1.40;;
73107;SDS011;61559;50.476;15.588;2023-04-25T14:13:26;2.80;;;1.30;;
73107;SDS011;61559;50.476;15.588;2023-04-25T14:15:57;1.70;;;1.30;;
73107;SDS011;61559;50.476;15.588;2023-04-25T14:18:28;4.80;;;1.70;;
73107;SDS011;61559;50.476;15.588;2023-04-25T14:21:00;1.60;;;1.30;;
73107;SDS011;61559;50.476;15.588;2023-04-25T14:23:30;4.10;;;2.10;;
73107;SDS011;61559;50.476;15.588;2023-04-25T14:26:03;2.70;;;1.60;;
73107;SDS011;61559;50.476;15.588;2023-04-25T14:28:34;3.80;;;2.00;;
73107;SDS011;61559;50.476;15.588;2023-04-25T14:31:05;7.10;;;1.70;;
73107;SDS011;61559;50.476;15.588;2023-04-25T14:33:36;4.90;;;2.00;;
73107;SDS011;61559;50.476;15.588;2023-04-25T14:36:11;2.70;;;1.70;;
73107;SDS011;61559;50.476;15.588;2023-04-25T14:38:42;2.80;;;1.90;;
73107;SDS011;61559;50.476;15.588;2023-04-25T14:41:13;2.70;;;1.60;;
73107;SDS011;61559;50.476;15.588;2023-04-25T14:43:44;3.10;;;1.60;;
73107;SDS011;61559;50.476;15.588;2023-04-25T14:46:16;2.70;;;1.60;;
73107;SDS011;61559;50.476;15.588;2023-04-25T14:48:47;3.80;;;3.40;;
73107;SDS011;61559;50.476;15.588;2023-04-25T14:51:22;2.70;;;2.30;;
73107;SDS011;61559;50.476;15.588;2023-04-25T14:54:15;3.90;;;2.20;;
73107;SDS011;61559;50.476;15.588;2023-04-25T14:57:24;2.00;;;1.60;;
73107;SDS011;61559;50.476;15.588;2023-04-25T15:00:59;8.20;;;3.80;;
73107;SDS011;61559;50.476;15.588;2023-04-25T15:04:17;4.90;;;1.90;;
73107;SDS011;61559;50.476;15.588;2023-04-25T15:07:00;1.90;;;1.30;;
73107;SDS011;61559;50.476;15.588;2023-04-25T15:09:31;2.30;;;1.50;;
73107;SDS011;61559;50.476;15.588;2023-04-25T15:12:12;1.70;;;1.20;;
73107;SDS011;61559;50.476;15.588;2023-04-25T15:14:43;2.00;;;1.30;;
73107;SDS011;61559;50.476;15.588;2023-04-25T15:17:15;3.80;;;2.00;;
73107;SDS011;61559;50.476;15.588;2023-04-25T15:23:17;6.10;;;2.80;;
73107;SDS011;61559;50.476;15.588;2023-04-25T15:26:08;6.00;;;3.40;;
73107;SDS011;61559;50.476;15.588;2023-04-25T15:28:44;6.30;;;2.90;;
73107;SDS011;61559;50.476;15.588;2023-04-25T15:31:16;3.50;;;1.90;;
73107;SDS011;61559;50.476;15.588;2023-04-25T15:34:06;2.70;;;2.00;;
73107;SDS011;61559;50.476;15.588;2023-04-25T15:37:13;3.90;;;2.10;;
73107;SDS011;61559;50.476;15.588;2023-04-25T15:40:05;4.40;;;2.40;;
73107;SDS011;61559;50.476;15.588;2023-04-25T15:42:54;4.10;;;2.20;;
73107;SDS011;61559;50.476;15.588;2023-04-25T15:45:33;3.30;;;2.60;;
73107;SDS011;61559;50.476;15.588;2023-04-25T15:48:09;9.60;;;4.80;;
73107;SDS011;61559;50.476;15.588;2023-04-25T15:50:41;4.80;;;2.40;;
73107;SDS011;61559;50.476;15.588;2023-04-25T15:53:13;3.30;;;1.90;;
73107;SDS011;61559;50.476;15.588;2023-04-25T15:55:46;4.60;;;2.90;;
73107;SDS011;61559;50.476;15.588;2023-04-25T15:58:24;6.70;;;3.30;;
73107;SDS011;61559;50.476;15.588;2023-04-25T16:00:57;4.70;;;2.10;;
73107;SDS011;61559;50.476;15.588;2023-04-25T16:03:29;2.50;;;1.40;;
73107;SDS011;61559;50.476;15.588;2023-04-25T16:06:04;4.00;;;2.40;;
73107;SDS011;61559;50.476;15.588;2023-04-25T16:08:35;3.20;;;1.40;;
73107;SDS011;61559;50.476;15.588;2023-04-25T16:11:07;3.50;;;1.40;;
73107;SDS011;61559;50.476;15.588;2023-04-25T16:17:10;2.90;;;1.30;;
73107;SDS011;61559;50.476;15.588;2023-04-25T16:19:41;3.90;;;1.30;;
73107;SDS011;61559;50.476;15.588;2023-04-25T16:22:12;2.80;;;1.00;;
73107;SDS011;61559;50.476;15.588;2023-04-25T16:24:44;3.40;;;1.30;;
73107;SDS011;61559;50.476;15.588;2023-04-25T16:27:15;2.20;;;1.30;;
73107;SDS011;61559;50.476;15.588;2023-04-25T16:29:46;1.70;;;1.30;;
73107;SDS011;61559;50.476;15.588;2023-04-25T16:32:18;1.80;;;1.30;;
73107;SDS011;61559;50.476;15.588;2023-04-25T16:34:50;5.40;;;1.50;;